Wyoming, Canada
Current Conditions -  °F | °C
As of 2:43 PM on Thursday 27 Nov 2014 (Local Time) from CYZR Reporting Station
Light Snow Light Snow  
Wind Chill: 21°   Ceiling: 2200
Heat Index: 32°   Visibility: 9mi
Dew Point: 23°   Wind: 17mph
Humidity: 69%   Direction: 320°NW
Pressure: 30.12"   Gusts: 23mph
Location:  42.95°N, 82.12°W
Report Text: CYZR 271943Z AUTO 32015G20KT 9SM -SN BKN022 BKN031 OVC040 M00/M05 A3012 RMK SLP207
Loading
Personal Weather Stations






























Interactive Weather Map New forecast layout! Learn more

10-Day Weather Forecast

Advertisements
Track Severe Weather on mobile